Time;durP1;ratioP1;P1;durP2;ratioP2;P2;SDS_P1;SDS_P2;PMS_P1;PMS_P2;Temp;Humidity;BMP_temperature;BMP_pressure;BME280_temperature;BME280_humidity;BME280_pressure;Samples;Min_cycle;Max_cycle;Signal;HPM_P1;HPM_P2
2022/11/22 00:01:23;;;;;;;35.20;5.80;;;;;;;;;;5071464;28;20032;-66
2022/11/22 00:03:49;;;;;;;22.50;3.53;;;;;;;;;;5071146;28;20109;-65
2022/11/22 00:06:15;;;;;;;31.15;4.03;;;;;;;;;;5070218;28;20086;-65
2022/11/22 00:08:41;;;;;;;26.33;4.90;;;;;;;;;;5071273;28;20025;-65
2022/11/22 00:11:07;;;;;;;34.22;4.68;;;;;;;;;;5071180;28;20395;-65
2022/11/22 00:13:33;;;;;;;30.17;4.45;;;;;;;;;;5070674;28;20029;-65
2022/11/22 00:16:00;;;;;;;23.27;4.50;;;;;;;;;;5051351;28;20490;-65
2022/11/22 00:18:27;;;;;;;30.60;5.53;;;;;;;;;;5071240;28;20031;-66
2022/11/22 00:20:53;;;;;;;23.88;3.55;;;;;;;;;;5071396;28;20029;-65
2022/11/22 00:23:19;;;;;;;18.55;4.03;;;;;;;;;;5069903;28;20103;-65
2022/11/22 00:25:45;;;;;;;25.33;3.55;;;;;;;;;;5070947;28;20030;-65
2022/11/22 00:28:11;;;;;;;34.58;4.65;;;;;;;;;;5070849;28;20111;-65
2022/11/22 00:30:37;;;;;;;30.63;6.03;;;;;;;;;;5071520;28;20498;-65
2022/11/22 00:33:04;;;;;;;36.63;5.75;;;;;;;;;;5071317;28;20066;-66
2022/11/22 00:35:30;;;;;;;31.85;4.50;;;;;;;;;;5071478;28;20025;-66
2022/11/22 00:37:56;;;;;;;30.02;4.60;;;;;;;;;;5071917;28;20036;-65
2022/11/22 00:40:22;;;;;;;33.47;4.50;;;;;;;;;;5074874;28;20409;-66
2022/11/22 00:42:48;;;;;;;25.30;4.07;;;;;;;;;;5074164;28;20071;-66
2022/11/22 00:45:14;;;;;;;12.65;2.50;;;;;;;;;;5074618;28;20444;-66
2022/11/22 00:47:40;;;;;;;8.13;1.58;;;;;;;;;;5074839;28;20527;-65
2022/11/22 00:50:06;;;;;;;9.93;0.93;;;;;;;;;;5074621;28;20422;-65
2022/11/22 00:52:33;;;;;;;10.25;1.52;;;;;;;;;;5074674;28;20013;-66
2022/11/22 00:54:59;;;;;;;7.93;1.35;;;;;;;;;;5074580;28;20062;-66
2022/11/22 00:57:25;;;;;;;16.08;2.22;;;;;;;;;;5074208;28;20021;-66
2022/11/22 00:59:51;;;;;;;8.00;1.83;;;;;;;;;;5074316;28;20374;-66
2022/11/22 01:02:17;;;;;;;24.25;3.03;;;;;;;;;;5074527;28;20070;-66
2022/11/22 01:04:43;;;;;;;22.20;3.72;;;;;;;;;;5072976;28;20089;-65
2022/11/22 01:07:09;;;;;;;19.25;3.60;;;;;;;;;;5074416;28;20095;-66
2022/11/22 01:09:35;;;;;;;34.88;4.03;;;;;;;;;;5074312;28;20020;-66
2022/11/22 01:12:01;;;;;;;25.85;5.38;;;;;;;;;;5073879;28;20056;-66
2022/11/22 01:14:27;;;;;;;35.80;4.78;;;;;;;;;;5074279;28;20024;-65
2022/11/22 01:16:53;;;;;;;41.47;5.93;;;;;;;;;;5074255;28;20024;-66
2022/11/22 01:19:20;;;;;;;39.42;6.47;;;;;;;;;;5074049;28;20111;-66
2022/11/22 01:21:46;;;;;;;28.98;5.57;;;;;;;;;;5073924;28;20029;-66
2022/11/22 01:24:12;;;;;;;23.20;5.15;;;;;;;;;;5073808;28;20053;-66
2022/11/22 01:26:38;;;;;;;28.42;5.53;;;;;;;;;;5073164;28;20025;-66
2022/11/22 01:29:04;;;;;;;52.67;7.85;;;;;;;;;;5073551;28;20028;-65
2022/11/22 01:31:30;;;;;;;29.08;4.82;;;;;;;;;;5074114;28;20020;-66
2022/11/22 01:33:57;;;;;;;39.13;5.40;;;;;;;;;;5073696;28;20043;-66
2022/11/22 01:36:24;;;;;;;34.60;7.13;;;;;;;;;;5074046;28;20054;-66
2022/11/22 01:38:50;;;;;;;43.17;5.68;;;;;;;;;;5073736;28;20110;-65
2022/11/22 01:41:16;;;;;;;31.02;5.55;;;;;;;;;;5073255;28;20043;-67
2022/11/22 01:43:42;;;;;;;34.30;4.95;;;;;;;;;;5074022;28;20031;-65
2022/11/22 01:46:34;;;;;;;44.53;7.45;;;;;;;;;;5073517;28;20032;-65
2022/11/22 01:49:03;;;;;;;44.97;8.30;;;;;;;;;;5072888;28;20123;-65
2022/11/22 01:51:32;;;;;;;50.92;7.75;;;;;;;;;;5073605;28;20028;-65
2022/11/22 01:54:01;;;;;;;43.67;6.90;;;;;;;;;;5073000;28;20150;-65
2022/11/22 01:56:28;;;;;;;46.05;6.82;;;;;;;;;;5073282;28;20025;-65
2022/11/22 01:58:56;;;;;;;39.03;5.40;;;;;;;;;;5073179;28;20557;-65
2022/11/22 02:01:22;;;;;;;35.60;5.45;;;;;;;;;;5073354;28;20020;-66
2022/11/22 02:03:50;;;;;;;34.58;4.68;;;;;;;;;;5072982;28;20109;-66
2022/11/22 02:06:17;;;;;;;26.00;4.20;;;;;;;;;;5073203;28;20488;-65
2022/11/22 02:08:53;;;;;;;31.50;4.30;;;;;;;;;;5073286;28;20033;-66
2022/11/22 02:11:20;;;;;;;31.73;4.63;;;;;;;;;;5072291;28;20089;-65
2022/11/22 02:13:47;;;;;;;28.38;4.68;;;;;;;;;;5072867;28;20031;-65
2022/11/22 02:16:14;;;;;;;26.52;5.18;;;;;;;;;;5072580;28;20055;-65
2022/11/22 02:18:40;;;;;;;35.60;7.60;;;;;;;;;;5073044;28;20436;-65
2022/11/22 02:21:07;;;;;;;32.30;6.60;;;;;;;;;;5072686;28;20493;-65
2022/11/22 02:23:53;;;;;;;29.08;3.97;;;;;;;;;;5072396;28;20510;-65
2022/11/22 02:26:20;;;;;;;13.65;3.10;;;;;;;;;;5072595;28;20121;-65
2022/11/22 02:28:46;;;;;;;30.23;4.40;;;;;;;;;;5072353;28;20040;-66
2022/11/22 02:31:31;;;;;;;13.77;3.35;;;;;;;;;;5072584;28;20393;-65
2022/11/22 02:33:57;;;;;;;31.70;4.78;;;;;;;;;;5072613;28;20035;-66
2022/11/22 02:36:23;;;;;;;29.38;5.68;;;;;;;;;;5072668;28;20502;-65
2022/11/22 02:38:49;;;;;;;36.22;6.85;;;;;;;;;;5071948;28;20035;-66
2022/11/22 02:41:16;;;;;;;36.92;5.60;;;;;;;;;;5071823;28;20058;-65
2022/11/22 02:43:44;;;;;;;31.40;5.47;;;;;;;;;;5072219;28;20039;-66
2022/11/22 02:46:11;;;;;;;35.05;6.97;;;;;;;;;;5071958;28;20024;-66
2022/11/22 02:48:41;;;;;;;32.20;4.80;;;;;;;;;;5072169;28;20020;-66
2022/11/22 02:51:07;;;;;;;29.38;4.93;;;;;;;;;;5072335;28;20039;-65
2022/11/22 02:53:33;;;;;;;30.27;6.38;;;;;;;;;;5071414;28;20103;-66
2022/11/22 02:55:59;;;;;;;32.05;5.75;;;;;;;;;;5072373;28;20032;-65
2022/11/22 02:58:25;;;;;;;36.17;5.40;;;;;;;;;;5071489;28;20028;-65
2022/11/22 03:00:52;;;;;;;36.33;4.68;;;;;;;;;;5071059;28;20032;-66
2022/11/22 03:03:18;;;;;;;31.02;5.20;;;;;;;;;;5071948;28;20432;-65
2022/11/22 03:05:44;;;;;;;40.30;5.93;;;;;;;;;;5072289;28;20054;-65
2022/11/22 03:08:10;;;;;;;32.88;5.63;;;;;;;;;;5071642;28;20021;-65
2022/11/22 03:10:36;;;;;;;23.30;5.45;;;;;;;;;;5071973;28;20020;-66
2022/11/22 03:13:03;;;;;;;43.63;7.28;;;;;;;;;;5072148;28;20020;-66
2022/11/22 03:15:29;;;;;;;33.88;6.00;;;;;;;;;;5072056;28;20371;-65
2022/11/22 03:17:58;;;;;;;31.95;6.07;;;;;;;;;;5072253;28;20024;-65
2022/11/22 03:20:24;;;;;;;39.13;6.22;;;;;;;;;;5071328;28;20032;-65
2022/11/22 03:22:51;;;;;;;37.33;4.78;;;;;;;;;;5071622;28;20035;-65
2022/11/22 03:25:17;;;;;;;33.88;4.97;;;;;;;;;;5071399;28;20033;-65
2022/11/22 03:27:43;;;;;;;52.75;7.32;;;;;;;;;;5072074;28;20453;-66
2022/11/22 03:30:09;;;;;;;44.33;6.65;;;;;;;;;;5071793;28;20025;-65
2022/11/22 03:32:36;;;;;;;39.75;5.90;;;;;;;;;;5071545;28;20012;-65
2022/11/22 03:35:02;;;;;;;40.97;6.85;;;;;;;;;;5071691;28;20025;-66
2022/11/22 03:37:28;;;;;;;35.90;6.10;;;;;;;;;;5071636;28;20036;-65
2022/11/22 03:39:54;;;;;;;30.92;5.68;;;;;;;;;;5071844;28;20033;-65
2022/11/22 03:42:20;;;;;;;60.83;7.82;;;;;;;;;;5071807;28;20032;-66
2022/11/22 03:44:46;;;;;;;43.47;6.68;;;;;;;;;;5071729;28;20037;-66
2022/11/22 03:47:12;;;;;;;48.55;6.82;;;;;;;;;;5071569;28;20059;-66
2022/11/22 03:49:39;;;;;;;49.70;7.43;;;;;;;;;;5071886;28;20032;-66
2022/11/22 03:52:05;;;;;;;33.63;6.55;;;;;;;;;;5071277;28;20105;-65
2022/11/22 03:54:31;;;;;;;43.38;5.35;;;;;;;;;;5071597;28;20028;-66
2022/11/22 03:56:57;;;;;;;31.00;5.25;;;;;;;;;;5071884;28;20530;-66
2022/11/22 03:59:23;;;;;;;31.75;5.38;;;;;;;;;;5071424;28;20063;-65
2022/11/22 04:01:49;;;;;;;51.78;6.82;;;;;;;;;;5071745;28;20035;-66
2022/11/22 04:04:15;;;;;;;50.63;7.63;;;;;;;;;;5071509;28;20029;-65
2022/11/22 04:06:41;;;;;;;36.97;6.03;;;;;;;;;;5071320;28;20409;-66
2022/11/22 04:09:08;;;;;;;36.65;5.50;;;;;;;;;;5071358;28;20025;-65
2022/11/22 04:11:34;;;;;;;34.92;5.07;;;;;;;;;;5071736;28;20025;-66
2022/11/22 04:16:45;;;;;;;37.33;5.70;;;;;;;;;;5075406;28;20497;-65
2022/11/22 04:19:11;;;;;;;53.13;8.07;;;;;;;;;;5075013;28;20489;-65
2022/11/22 04:21:37;;;;;;;38.03;5.28;;;;;;;;;;5074857;28;20027;-66
2022/11/22 04:26:49;;;;;;;36.50;7.13;;;;;;;;;;5074930;28;20047;-66
2022/11/22 04:29:15;;;;;;;16.17;4.03;;;;;;;;;;5074961;28;20024;-66
2022/11/22 04:34:26;;;;;;;31.20;5.13;;;;;;;;;;5074615;28;20029;-66
2022/11/22 04:36:52;;;;;;;31.30;5.28;;;;;;;;;;5075012;28;20138;-65
2022/11/22 04:39:18;;;;;;;35.28;5.22;;;;;;;;;;5074651;28;20033;-66
2022/11/22 04:41:45;;;;;;;36.60;4.90;;;;;;;;;;5075158;28;20481;-66
2022/11/22 04:46:55;;;;;;;36.40;6.05;;;;;;;;;;5074842;28;20036;-66
2022/11/22 04:49:22;;;;;;;44.60;5.47;;;;;;;;;;5072986;28;20020;-66
2022/11/22 04:54:32;;;;;;;34.00;5.53;;;;;;;;;;5074706;28;20493;-65
2022/11/22 04:56:58;;;;;;;33.50;5.75;;;;;;;;;;5074885;28;20025;-66
2022/11/22 04:59:24;;;;;;;28.33;4.63;;;;;;;;;;5074291;28;20105;-65
2022/11/22 05:01:52;;;;;;;46.20;4.30;;;;;;;;;;5074516;28;20024;-66
2022/11/22 05:04:18;;;;;;;24.73;4.68;;;;;;;;;;5073591;28;20379;-65
2022/11/22 05:06:44;;;;;;;27.95;5.03;;;;;;;;;;5074565;28;20102;-66
2022/11/22 05:09:10;;;;;;;24.80;4.68;;;;;;;;;;5074018;28;20481;-66
2022/11/22 05:11:36;;;;;;;19.05;4.15;;;;;;;;;;5074110;28;20017;-65
2022/11/22 05:14:03;;;;;;;35.65;4.53;;;;;;;;;;5074334;28;20478;-65
2022/11/22 05:16:29;;;;;;;32.70;6.18;;;;;;;;;;5073920;28;20024;-65
2022/11/22 05:18:58;;;;;;;16.27;2.88;;;;;;;;;;5074051;28;20112;-66
2022/11/22 05:21:25;;;;;;;24.67;4.05;;;;;;;;;;5073833;28;20060;-65
2022/11/22 05:23:54;;;;;;;31.70;3.90;;;;;;;;;;5073298;28;20040;-65
2022/11/22 05:26:21;;;;;;;30.25;4.57;;;;;;;;;;5073854;28;20103;-65
2022/11/22 05:28:48;;;;;;;32.28;4.82;;;;;;;;;;5073933;28;20089;-65
2022/11/22 05:31:21;;;;;;;33.35;4.13;;;;;;;;;;5073952;28;20021;-65
2022/11/22 05:33:48;;;;;;;19.67;3.55;;;;;;;;;;5073797;28;20029;-66
2022/11/22 05:36:14;;;;;;;22.67;4.53;;;;;;;;;;5073820;28;20021;-65
2022/11/22 05:38:40;;;;;;;17.23;3.25;;;;;;;;;;5073500;28;20108;-65
2022/11/22 05:41:08;;;;;;;26.23;3.33;;;;;;;;;;5072530;28;20450;-66
2022/11/22 05:43:34;;;;;;;34.53;4.65;;;;;;;;;;5073571;28;20028;-65
2022/11/22 05:46:19;;;;;;;24.42;3.53;;;;;;;;;;5072295;28;20371;-66
2022/11/22 05:48:46;;;;;;;22.00;3.67;;;;;;;;;;5073447;28;20028;-65
2022/11/22 05:51:13;;;;;;;28.35;4.25;;;;;;;;;;5072314;28;20028;-65
2022/11/22 05:53:41;;;;;;;30.38;4.07;;;;;;;;;;5061583;28;20036;-65
2022/11/22 05:56:15;;;;;;;32.67;4.13;;;;;;;;;;5067838;28;20024;-65
2022/11/22 05:58:41;;;;;;;40.40;5.25;;;;;;;;;;5062723;28;20116;-66
2022/11/22 06:01:07;;;;;;;26.25;4.65;;;;;;;;;;5072591;28;20068;-66
2022/11/22 06:03:34;;;;;;;42.10;5.93;;;;;;;;;;5072849;28;20093;-65
2022/11/22 06:06:00;;;;;;;32.90;5.07;;;;;;;;;;5071128;28;20394;-65
2022/11/22 06:08:28;;;;;;;33.35;6.97;;;;;;;;;;5071387;28;20031;-65
2022/11/22 06:10:54;;;;;;;28.98;4.95;;;;;;;;;;5071711;28;20462;-66
2022/11/22 06:13:20;;;;;;;48.08;6.15;;;;;;;;;;5071566;28;20021;-66
2022/11/22 06:15:46;;;;;;;37.28;4.90;;;;;;;;;;5071185;28;20019;-66
2022/11/22 06:18:13;;;;;;;27.40;4.60;;;;;;;;;;5071606;28;20428;-65
2022/11/22 06:20:39;;;;;;;34.53;5.25;;;;;;;;;;5071406;28;20021;-66
2022/11/22 06:23:05;;;;;;;33.47;6.35;;;;;;;;;;5071266;28;20032;-66
2022/11/22 06:25:32;;;;;;;34.03;5.93;;;;;;;;;;5068600;28;20489;-65
2022/11/22 06:27:58;;;;;;;20.33;3.90;;;;;;;;;;5069950;28;20024;-65
2022/11/22 06:30:25;;;;;;;30.50;4.90;;;;;;;;;;5069986;28;20066;-65
2022/11/22 06:32:51;;;;;;;28.02;4.95;;;;;;;;;;5072228;28;20434;-66
2022/11/22 06:35:17;;;;;;;22.33;4.95;;;;;;;;;;5071748;28;20032;-66
2022/11/22 06:37:43;;;;;;;23.27;5.50;;;;;;;;;;5071856;28;20494;-65
2022/11/22 06:40:10;;;;;;;20.65;4.03;;;;;;;;;;5072185;28;20021;-65
2022/11/22 06:42:37;;;;;;;24.73;4.97;;;;;;;;;;5072128;28;20089;-65
2022/11/22 06:45:03;;;;;;;28.10;4.13;;;;;;;;;;5070422;28;20025;-65
2022/11/22 06:47:29;;;;;;;27.20;4.97;;;;;;;;;;5071365;28;20153;-65
2022/11/22 06:49:55;;;;;;;31.35;6.28;;;;;;;;;;5071323;28;20496;-66
2022/11/22 06:52:21;;;;;;;27.17;4.72;;;;;;;;;;5057298;28;20028;-65
2022/11/22 06:54:47;;;;;;;37.00;6.03;;;;;;;;;;5071411;28;20420;-65
2022/11/22 06:57:13;;;;;;;26.55;4.25;;;;;;;;;;5071423;28;20046;-65
2022/11/22 06:59:39;;;;;;;25.85;5.13;;;;;;;;;;5070790;28;20029;-65
2022/11/22 07:02:06;;;;;;;28.10;4.85;;;;;;;;;;5072034;28;20444;-65
2022/11/22 07:04:32;;;;;;;18.80;4.47;;;;;;;;;;5067319;28;20025;-65
2022/11/22 07:06:58;;;;;;;29.67;4.22;;;;;;;;;;5071927;28;20024;-66
2022/11/22 07:09:24;;;;;;;18.30;4.20;;;;;;;;;;5068885;28;20032;-66
2022/11/22 07:11:50;;;;;;;21.88;3.97;;;;;;;;;;5069136;28;20082;-66
2022/11/22 07:14:16;;;;;;;29.35;4.10;;;;;;;;;;5069304;28;20021;-65
2022/11/22 07:16:42;;;;;;;24.98;3.70;;;;;;;;;;5070368;28;20044;-66
2022/11/22 07:19:09;;;;;;;16.80;3.03;;;;;;;;;;5070374;28;21328;-66
2022/11/22 07:21:36;;;;;;;22.95;3.50;;;;;;;;;;5069043;28;20397;-66
2022/11/22 07:24:03;;;;;;;26.15;3.53;;;;;;;;;;5068101;28;20083;-66
2022/11/22 07:26:29;;;;;;;28.00;4.57;;;;;;;;;;5069788;28;20033;-65
2022/11/22 07:28:56;;;;;;;18.35;3.47;;;;;;;;;;5069846;28;20017;-66
2022/11/22 07:31:22;;;;;;;19.80;3.47;;;;;;;;;;5068102;28;20455;-66
2022/11/22 07:33:48;;;;;;;24.73;4.75;;;;;;;;;;5056139;28;20099;-65
2022/11/22 07:36:16;;;;;;;27.08;4.28;;;;;;;;;;5070354;28;20032;-66
2022/11/22 07:38:42;;;;;;;23.85;3.72;;;;;;;;;;5065479;28;20082;-66
2022/11/22 07:41:09;;;;;;;33.10;5.13;;;;;;;;;;5069325;28;20392;-65
2022/11/22 07:43:35;;;;;;;32.40;4.57;;;;;;;;;;5066556;28;20020;-65
2022/11/22 07:46:11;;;;;;;17.00;4.47;;;;;;;;;;5070454;28;20044;-66
2022/11/22 07:48:37;;;;;;;29.27;3.97;;;;;;;;;;5074979;28;20021;-65
2022/11/22 07:51:04;;;;;;;33.45;5.35;;;;;;;;;;5075045;28;20551;-66
2022/11/22 07:53:30;;;;;;;22.83;3.38;;;;;;;;;;5075369;28;20028;-65
2022/11/22 07:55:56;;;;;;;23.02;2.70;;;;;;;;;;5074634;28;20108;-65
2022/11/22 07:58:22;;;;;;;19.95;2.85;;;;;;;;;;5074885;28;20021;-65
2022/11/22 08:00:48;;;;;;;19.02;2.40;;;;;;;;;;5071108;28;20032;-65
2022/11/22 08:03:14;;;;;;;21.63;2.40;;;;;;;;;;5070222;28;20028;-65
2022/11/22 08:05:40;;;;;;;29.83;3.92;;;;;;;;;;5069230;28;20031;-65
2022/11/22 08:08:07;;;;;;;25.40;4.10;;;;;;;;;;5073135;28;20027;-66
2022/11/22 08:10:33;;;;;;;26.25;4.22;;;;;;;;;;5072231;28;20018;-65
2022/11/22 08:12:59;;;;;;;24.75;3.90;;;;;;;;;;5070148;28;20405;-66
2022/11/22 08:15:25;;;;;;;22.30;4.03;;;;;;;;;;5072048;28;20032;-65
2022/11/22 08:17:51;;;;;;;33.95;5.82;;;;;;;;;;5071325;28;20078;-65
2022/11/22 08:20:18;;;;;;;27.33;4.00;;;;;;;;;;5073204;28;20028;-64
2022/11/22 08:22:44;;;;;;;32.13;4.65;;;;;;;;;;5073337;28;20037;-65
2022/11/22 08:25:12;;;;;;;37.25;6.50;;;;;;;;;;5072728;28;20072;-65
2022/11/22 08:27:40;;;;;;;29.95;4.45;;;;;;;;;;5072663;28;20085;-65
2022/11/22 08:30:06;;;;;;;27.00;4.63;;;;;;;;;;5072305;28;20032;-65
2022/11/22 08:32:32;;;;;;;25.98;5.28;;;;;;;;;;5073015;28;20016;-65
2022/11/22 08:34:58;;;;;;;29.67;5.00;;;;;;;;;;5072759;28;20013;-65
2022/11/22 08:37:24;;;;;;;24.92;4.85;;;;;;;;;;5073161;28;20028;-65
2022/11/22 08:39:51;;;;;;;32.10;4.97;;;;;;;;;;5072798;28;20024;-65
2022/11/22 08:42:17;;;;;;;27.30;4.30;;;;;;;;;;5072817;28;20032;-65
2022/11/22 08:44:43;;;;;;;28.35;5.03;;;;;;;;;;5072814;28;20424;-65
2022/11/22 08:47:09;;;;;;;28.10;5.45;;;;;;;;;;5071484;28;20025;-65
2022/11/22 08:49:35;;;;;;;27.05;5.22;;;;;;;;;;5070740;28;20470;-65
2022/11/22 08:52:02;;;;;;;37.95;5.28;;;;;;;;;;5072269;28;20490;-65
2022/11/22 08:54:28;;;;;;;31.50;5.72;;;;;;;;;;5072993;28;20027;-65
2022/11/22 08:56:54;;;;;;;29.65;5.95;;;;;;;;;;5072421;28;20104;-65
2022/11/22 08:59:20;;;;;;;30.77;6.28;;;;;;;;;;5063928;28;20482;-65
2022/11/22 09:01:46;;;;;;;33.38;7.57;;;;;;;;;;5072609;28;20037;-65
2022/11/22 09:04:12;;;;;;;36.30;6.28;;;;;;;;;;5071189;28;20024;-65
2022/11/22 09:06:38;;;;;;;22.67;5.60;;;;;;;;;;5072500;28;20115;-65
2022/11/22 09:09:05;;;;;;;31.73;4.63;;;;;;;;;;5072587;28;20017;-65
2022/11/22 09:11:31;;;;;;;26.67;4.35;;;;;;;;;;5070892;28;20108;-65
2022/11/22 09:13:57;;;;;;;30.08;6.32;;;;;;;;;;5070554;28;20021;-64
2022/11/22 09:16:23;;;;;;;28.58;4.28;;;;;;;;;;5072415;28;20035;-65
2022/11/22 09:18:49;;;;;;;26.63;6.22;;;;;;;;;;5071972;28;20064;-65
2022/11/22 09:21:18;;;;;;;26.10;4.20;;;;;;;;;;5071764;28;20029;-65
2022/11/22 09:23:45;;;;;;;28.45;4.28;;;;;;;;;;5071707;28;20505;-66
2022/11/22 09:26:12;;;;;;;21.90;4.80;;;;;;;;;;5071303;28;20029;-65
2022/11/22 09:28:38;;;;;;;28.90;4.10;;;;;;;;;;5072474;28;20021;-65
2022/11/22 09:31:05;;;;;;;29.33;4.20;;;;;;;;;;5071983;28;20107;-65
2022/11/22 09:33:31;;;;;;;26.38;4.68;;;;;;;;;;5070798;28;20013;-66
2022/11/22 09:36:01;;;;;;;27.90;4.25;;;;;;;;;;5071037;28;20036;-66
2022/11/22 09:38:28;;;;;;;25.98;4.40;;;;;;;;;;5068457;28;20457;-66
2022/11/22 09:40:54;;;;;;;23.27;4.45;;;;;;;;;;5071745;28;20158;-65
2022/11/22 09:43:23;;;;;;;29.98;5.22;;;;;;;;;;5070919;28;20032;-65
2022/11/22 09:45:49;;;;;;;39.17;4.70;;;;;;;;;;5070920;28;20028;-65
2022/11/22 09:48:15;;;;;;;33.00;5.00;;;;;;;;;;5069893;28;20464;-65
2022/11/22 09:51:02;;;;;;;24.98;5.22;;;;;;;;;;5072036;28;20359;-65
2022/11/22 09:53:47;;;;;;;25.15;4.57;;;;;;;;;;5063562;28;20017;-65
2022/11/22 09:56:16;;;;;;;32.00;4.97;;;;;;;;;;5068367;28;20036;-65
2022/11/22 09:58:46;;;;;;;27.27;4.10;;;;;;;;;;5071854;28;20115;-65
2022/11/22 10:01:17;;;;;;;36.10;5.20;;;;;;;;;;5070985;28;20115;-66
2022/11/22 10:03:55;;;;;;;26.08;4.82;;;;;;;;;;5071357;28;20086;-65
2022/11/22 10:06:28;;;;;;;32.67;6.15;;;;;;;;;;5070934;28;20029;-65
2022/11/22 10:08:54;;;;;;;;;;;;;;;;;;5071416;28;20028;-66
2022/11/22 10:11:39;;;;;;;26.70;5.68;;;;;;;;;;5071473;28;19953;-66
2022/11/22 10:14:26;;;;;;;26.13;5.53;;;;;;;;;;5070434;28;20081;-66
2022/11/22 10:16:55;;;;;;;32.15;5.95;;;;;;;;;;5071546;28;20029;-66
2022/11/22 10:19:29;;;;;;;31.67;4.78;;;;;;;;;;5070622;28;20024;-66
2022/11/22 10:21:55;;;;;;;26.70;4.85;;;;;;;;;;5070168;28;20039;-66
2022/11/22 10:24:21;;;;;;;28.65;5.60;;;;;;;;;;5069876;28;20045;-66
2022/11/22 10:26:48;;;;;;;25.13;5.18;;;;;;;;;;5069697;28;20043;-65
2022/11/22 10:29:22;;;;;;;33.03;5.40;;;;;;;;;;5070572;28;20067;-66
2022/11/22 10:31:57;;;;;;;25.13;6.13;;;;;;;;;;5064443;28;20040;-66
2022/11/22 10:34:46;;;;;;;34.45;5.07;;;;;;;;;;5069981;28;20048;-66
2022/11/22 10:37:20;;;;;;;32.80;5.65;;;;;;;;;;5061845;28;20086;-66
2022/11/22 10:40:04;;;;;;;24.70;5.80;;;;;;;;;;5070533;28;20020;-66
2022/11/22 10:42:34;;;;;;;34.88;5.40;;;;;;;;;;5070157;28;20120;-66
2022/11/22 10:45:06;;;;;;;38.78;5.75;;;;;;;;;;5070089;28;20109;-66
2022/11/22 10:47:38;;;;;;;22.67;4.65;;;;;;;;;;5069587;28;20063;-65
2022/11/22 10:50:20;;;;;;;25.40;6.47;;;;;;;;;;5070550;28;20031;-66
2022/11/22 10:52:46;;;;;;;27.73;5.22;;;;;;;;;;5069910;28;20477;-66
2022/11/22 10:55:12;;;;;;;30.15;5.45;;;;;;;;;;5070143;28;20448;-66
2022/11/22 10:57:43;;;;;;;25.88;4.20;;;;;;;;;;5069705;28;20020;-66
2022/11/22 11:00:15;;;;;;;17.33;4.63;;;;;;;;;;5065753;28;20039;-66
2022/11/22 11:02:41;;;;;;;23.27;4.50;;;;;;;;;;5070253;28;20035;-66
2022/11/22 11:05:10;;;;;;;27.13;4.95;;;;;;;;;;5069478;28;20236;-66
2022/11/22 11:07:38;;;;;;;27.40;5.32;;;;;;;;;;5069027;28;20492;-66
2022/11/22 11:10:05;;;;;;;29.35;4.88;;;;;;;;;;5069671;28;20028;-66
2022/11/22 11:12:34;;;;;;;31.13;5.45;;;;;;;;;;5070370;28;20112;-66
2022/11/22 11:15:03;;;;;;;19.35;5.25;;;;;;;;;;5069603;28;20501;-66
2022/11/22 11:17:32;;;;;;;28.88;5.40;;;;;;;;;;5069180;28;20119;-66
2022/11/22 11:20:00;;;;;;;31.02;5.78;;;;;;;;;;5066618;28;20841;-66
2022/11/22 11:22:27;;;;;;;30.20;4.63;;;;;;;;;;5069394;28;20017;-66
2022/11/22 11:24:53;;;;;;;25.38;5.10;;;;;;;;;;5069096;28;20132;-66
2022/11/22 11:27:20;;;;;;;32.40;5.32;;;;;;;;;;5069671;28;20020;-65
2022/11/22 11:30:04;;;;;;;30.73;6.50;;;;;;;;;;5069503;28;20066;-66
2022/11/22 11:32:49;;;;;;;29.40;5.53;;;;;;;;;;5066011;28;20017;-66
2022/11/22 11:35:15;;;;;;;34.08;5.93;;;;;;;;;;5057974;28;20090;-66
2022/11/22 11:37:41;;;;;;;34.35;5.10;;;;;;;;;;5064929;28;20032;-66
2022/11/22 11:40:27;;;;;;;38.40;8.55;;;;;;;;;;5053663;28;20137;-65
2022/11/22 11:43:12;;;;;;;27.45;5.43;;;;;;;;;;5054982;28;20410;-65
2022/11/22 11:45:38;;;;;;;27.88;5.25;;;;;;;;;;5054919;28;20126;-66
2022/11/22 11:48:04;;;;;;;32.22;6.97;;;;;;;;;;5056191;28;20021;-66
2022/11/22 11:50:30;;;;;;;35.83;6.05;;;;;;;;;;5057031;28;20048;-66
2022/11/22 11:53:06;;;;;;;31.25;4.68;;;;;;;;;;5054334;28;20021;-66
2022/11/22 11:55:36;;;;;;;40.88;5.57;;;;;;;;;;5055750;28;20029;-66
2022/11/22 11:58:04;;;;;;;29.35;5.53;;;;;;;;;;5063309;28;20024;-66
2022/11/22 12:00:38;;;;;;;39.35;4.68;;;;;;;;;;5068225;28;20105;-66
2022/11/22 12:03:06;;;;;;;21.35;3.95;;;;;;;;;;5067445;28;20635;-65
2022/11/22 12:05:33;;;;;;;28.02;5.55;;;;;;;;;;5053392;28;20192;-66
2022/11/22 12:08:02;;;;;;;28.95;5.82;;;;;;;;;;5054235;28;20033;-66
2022/11/22 12:10:29;;;;;;;26.92;4.93;;;;;;;;;;5053056;28;20021;-67
2022/11/22 12:12:59;;;;;;;25.63;4.95;;;;;;;;;;5054254;28;20106;-67
2022/11/22 12:15:44;;;;;;;28.23;5.07;;;;;;;;;;5054819;28;20099;-67
2022/11/22 12:18:23;;;;;;;38.45;6.07;;;;;;;;;;5057087;28;20041;-67
2022/11/22 12:21:02;;;;;;;16.38;3.92;;;;;;;;;;5056758;28;20491;-66
2022/11/22 12:23:29;;;;;;;26.80;3.85;;;;;;;;;;5054389;28;20098;-66
2022/11/22 12:25:57;;;;;;;30.20;5.68;;;;;;;;;;5053977;28;20020;-66
2022/11/22 12:28:28;;;;;;;27.63;3.60;;;;;;;;;;5055542;28;20478;-66
2022/11/22 12:31:17;;;;;;;20.17;4.28;;;;;;;;;;5054443;28;20035;-67
2022/11/22 12:33:46;;;;;;;23.77;5.05;;;;;;;;;;5065768;28;20033;-66
2022/11/22 12:36:18;;;;;;;21.35;3.45;;;;;;;;;;5073037;28;20490;-65
2022/11/22 12:38:45;;;;;;;35.28;4.78;;;;;;;;;;5068218;28;20545;-66
2022/11/22 12:41:13;;;;;;;23.25;4.85;;;;;;;;;;5064053;28;20029;-66
2022/11/22 12:43:44;;;;;;;19.95;4.15;;;;;;;;;;5066314;28;20028;-66
2022/11/22 12:46:13;;;;;;;25.48;4.13;;;;;;;;;;5066715;28;20455;-66
2022/11/22 12:48:42;;;;;;;21.45;4.30;;;;;;;;;;5062888;28;20404;-66
2022/11/22 12:51:25;;;;;;;25.52;3.90;;;;;;;;;;5060896;28;20068;-67
2022/11/22 12:53:52;;;;;;;22.45;4.50;;;;;;;;;;5071932;28;20021;-66
2022/11/22 12:56:22;;;;;;;33.90;5.95;;;;;;;;;;5071741;28;20083;-66
2022/11/22 12:59:00;;;;;;;21.95;4.35;;;;;;;;;;5065329;28;20025;-67
2022/11/22 13:01:41;;;;;;;23.15;5.25;;;;;;;;;;5070967;28;20417;-66
2022/11/22 13:04:11;;;;;;;22.77;3.67;;;;;;;;;;5070701;28;20066;-67
2022/11/22 13:07:03;;;;;;;18.52;3.45;;;;;;;;;;5070842;28;20096;-65
2022/11/22 13:09:38;;;;;;;22.53;4.17;;;;;;;;;;5070044;28;20040;-65
2022/11/22 13:12:04;;;;;;;19.40;3.85;;;;;;;;;;5070375;28;20020;-66
2022/11/22 13:14:33;;;;;;;34.38;4.68;;;;;;;;;;5071467;28;20025;-66
2022/11/22 13:17:05;;;;;;;32.03;4.75;;;;;;;;;;5072049;28;20501;-66
2022/11/22 13:19:32;;;;;;;18.92;4.28;;;;;;;;;;5072574;28;20021;-66
2022/11/22 13:22:09;;;;;;;26.45;4.13;;;;;;;;;;5070254;28;20039;-66
2022/11/22 13:25:14;;;;;;;27.80;4.70;;;;;;;;;;5071661;28;20135;-66
2022/11/22 13:27:43;;;;;;;22.15;4.32;;;;;;;;;;5071502;28;20035;-66
2022/11/22 13:30:23;;;;;;;32.47;3.97;;;;;;;;;;5075649;28;20070;-66
2022/11/22 13:32:51;;;;;;;22.67;3.70;;;;;;;;;;5074001;28;20032;-66
2022/11/22 13:35:26;;;;;;;27.70;3.95;;;;;;;;;;5079210;28;20115;-66
2022/11/22 13:37:53;;;;;;;23.90;5.68;;;;;;;;;;5072272;28;20042;-66
2022/11/22 13:40:19;;;;;;;20.27;3.75;;;;;;;;;;5075817;28;20036;-67
2022/11/22 13:42:46;;;;;;;20.75;3.70;;;;;;;;;;5069570;28;20043;-66
2022/11/22 13:45:19;;;;;;;24.75;4.40;;;;;;;;;;5067702;28;20503;-67
2022/11/22 13:47:46;;;;;;;23.55;3.78;;;;;;;;;;5069376;28;20064;-66
2022/11/22 13:50:30;;;;;;;25.35;4.75;;;;;;;;;;5051779;28;20025;-66
2022/11/22 13:52:56;;;;;;;37.88;5.57;;;;;;;;;;5049849;28;20480;-66
2022/11/22 13:55:28;;;;;;;32.45;4.07;;;;;;;;;;5068149;28;20078;-66
2022/11/22 13:57:54;;;;;;;25.42;4.35;;;;;;;;;;5064303;28;20045;-66
2022/11/22 14:00:20;;;;;;;30.13;4.85;;;;;;;;;;5070845;28;20028;-66
2022/11/22 14:03:15;;;;;;;19.50;4.45;;;;;;;;;;5070851;28;20035;-66
2022/11/22 14:05:45;;;;;;;29.05;4.45;;;;;;;;;;5069097;28;20509;-66
2022/11/22 14:08:26;;;;;;;27.00;4.50;;;;;;;;;;5071479;28;20020;-67
2022/11/22 14:10:52;;;;;;;21.88;3.35;;;;;;;;;;5069871;28;20031;-66
2022/11/22 14:13:33;;;;;;;27.33;4.70;;;;;;;;;;5069316;28;20087;-67
2022/11/22 14:16:11;;;;;;;19.70;3.88;;;;;;;;;;5067921;28;20032;-66
2022/11/22 14:18:44;;;;;;;23.80;4.68;;;;;;;;;;5069929;28;20031;-66
2022/11/22 14:21:12;;;;;;;25.52;3.78;;;;;;;;;;5071285;28;20029;-66
2022/11/22 14:23:57;;;;;;;19.92;3.47;;;;;;;;;;5070867;28;20406;-66
2022/11/22 14:26:49;;;;;;;22.65;5.13;;;;;;;;;;5068338;28;20029;-66
2022/11/22 14:29:38;;;;;;;32.37;5.50;;;;;;;;;;5066650;28;20477;-66
2022/11/22 14:32:13;;;;;;;31.60;4.35;;;;;;;;;;5071343;28;20043;-66
2022/11/22 14:34:58;;;;;;;19.55;2.97;;;;;;;;;;5071560;28;20034;-65
2022/11/22 14:37:33;;;;;;;19.05;3.72;;;;;;;;;;5070976;28;20028;-66
2022/11/22 14:40:08;;;;;;;24.70;4.72;;;;;;;;;;5064567;28;20032;-65
2022/11/22 14:42:46;;;;;;;28.63;5.57;;;;;;;;;;5057318;28;20033;-65
2022/11/22 14:45:12;;;;;;;24.05;4.13;;;;;;;;;;5056080;28;20501;-65
2022/11/22 14:47:53;;;;;;;34.45;4.93;;;;;;;;;;5058125;28;20043;-65
2022/11/22 14:50:22;;;;;;;22.13;4.25;;;;;;;;;;5062784;28;20108;-64
2022/11/22 14:52:48;;;;;;;19.20;3.42;;;;;;;;;;5061818;28;20029;-65
2022/11/22 14:55:16;;;;;;;22.85;4.45;;;;;;;;;;5069969;28;20417;-65